Tiempo atmosférico en la estación meteorológica de Muniesa, Teruel (800 m.)



Fecha
DESCASC
Temp. máxima en grados centígrados (hora)
DESCASC
Temp. mínima en grados centígrados (hora)
DESCASC
Temp. media en grados centígrados
DESCASC
Racha de viento máxima en m/sg (hora)
DESCASC
Velocidad máxima media en intervalos de 10 minutos(hora)
DESCASC
Precipitaciones diarias en mm
DESCASC
Precipitaciones de 00:00 a 06:00 en mm
DESCASC
Precipitaciones de 06:00 a 12:00 en mm
DESCASC
Precipitaciones de 12:00 a 18:00 en mm
DESCASC
Precipitaciones de 18:00 a 24:00 en mm
DESCASC
11-12-2019 10.5 (10:20) 4.5 (20:10) 7.5 17.5 (23:50) 10 (23:20) 0 0 0 0 0
08-12-2019 13.5 (15:10) 3.2 (00:00) 8.4 12.5 (18:00) 7.22 (18:00) 3.2 0 0 0 3.2
07-12-2019 12.8 (15:30) 2.6 (00:00) 7.7 4.17 (19:40) 3.33 (19:40) 0 0 0 0 0
06-12-2019 11.1 (15:10) 4.6 (00:00) 7.9 4.72 (12:20) 3.06 (12:20) 0.6 0.6 0 0 0
05-12-2019 6.1 (14:10) 4.4 (00:00) 5.3 5.83 (00:10) 3.33 (00:10) 5 1.4 2 1.4 0.2
04-12-2019 5.5 (18:20) 2.4 (00:00) 4 6.39 (19:10) 3.61 (13:00) 11.4 0.2 0.8 4.8 5.6
03-12-2019 4.5 (15:20) 0.1 (00:00) 2.3 7.22 (00:10) 3.61 (00:10) 1 0 0 0 1
02-12-2019 8.2 (14:00) 2.4 (00:00) 5.3 8.33 (21:30) 4.17 (18:00) 0 0 0 0 0
01-12-2019 10.9 (15:20) 3.7 (00:00) 7.3 8.61 (00:10) 5 (00:10) 2.8 2.8 0 0 0
30-11-2019 18.2 (15:00) 6.8 (00:00) 12.5 14.72 (18:20) 8.61 (18:40) 1.4 0 0 0 1.4
29-11-2019 14.8 (14:40) 8.3 (00:00) 11.6 12.22 (04:50) 7.22 (05:40) 0 0 0 0 0
28-11-2019 14.5 (13:10) 8.1 (08:30) 11.3 14.72 (10:50) 8.61 (10:30) 0 0 0 0 0
27-11-2019 14.3 (14:40) 7.7 (00:00) 11 14.72 (02:30) 8.61 (12:50) 0 0 0 0 0
26-11-2019 18.3 (15:40) 6.1 (00:00) 12.2 11.39 (14:40) 7.5 (14:00) 0 0 0 0 0
25-11-2019 15.1 (14:20) 7.5 (02:00) 11.3 15.56 (05:20) 10.28 (05:20) 0 0 0 0 0
24-11-2019 9.4 (14:50) 4.3 (00:00) 6.8 15.28 (02:40) 9.44 (02:40) 0 0 0 0 0
23-11-2019 9.3 (16:40) 4.4 (00:00) 6.9 18.61 (14:50) 10.28 (14:50) 0.2 0 0.2 0 0
22-11-2019 12.3 (19:20) 3.8 (00:00) 8.1 22.22 (22:30) 10.56 (22:30) 2 0 0 0 2
21-11-2019 10.7 (13:10) 3.6 (00:00) 7.1 7.78 (05:50) 5.28 (07:10) 0.2 0 0 0 0.2
20-11-2019 11.3 (15:50) 1.2 (07:50) 6.3 6.94 (17:00) 5 (17:00) 0 0 0 0 0
19-11-2019 9.4 (15:20) 1.2 (00:00) 5.3 9.17 (10:30) 5.56 (10:30) 0 0 0 0 0
18-11-2019 6.4 (15:10) 2.4 (00:00) 4.4 16.11 (13:00) 10 (15:00) 0.2 0.2 0 0 0
17-11-2019 10.4 (14:10) 2.9 (00:00) 6.6 14.17 (09:20) 8.61 (09:50) 0.2 0 0 0 0.2
16-11-2019 8 (14:30) 0 (00:00) 4 13.61 (21:30) 8.61 (21:50) 0 0 0 0 0
15-11-2019 7.4 (14:20) 1.6 (00:00) 4.5 13.61 (14:50) 8.06 (15:50) 0 0 0 0 0

Gráficas

Temp. máximas Temp. mínimas Temp. medias Precipitaciones Rachas de viento máximas Velocidades máximas media en intervalos de 10 minutos

Datos horarios

Fecha y hora oficial Temperatura (ºC) Velocidad del viento (km/h) Dirección del viento Racha (km/h) Dirección de racha Precipitación (mm) Presión (hPa) Tendencia (hPa) Humedad (%)
2019-12-14 23:00:00 8.1 9 Sudoeste 20 Sudoeste 0 -- -- 72
2019-12-14 22:00:00 7.8 9 Sudoeste 18 Sudoeste 0 -- -- 73
2019-12-14 21:00:00 8.3 7 Oeste 26 Oeste 0 -- -- 70
2019-12-14 20:00:00 8.6 13 Oeste 23 Oeste 0 -- -- 69
2019-12-14 19:00:00 9.1 8 Oeste 22 Oeste 0 -- -- 68
2019-12-14 18:00:00 9.4 9 Oeste 27 Oeste 0 -- -- 67
2019-12-14 17:00:00 10.9 11 Oeste 22 Oeste 0 -- -- 61
2019-12-14 16:00:00 10.2 12 Oeste 29 Sudoeste 0 -- -- 64
2019-12-14 15:00:00 10.7 17 Oeste 35 Oeste 0 -- -- 62
2019-12-14 14:00:00 11.4 19 Oeste 34 Oeste 0 -- -- 59
2019-12-14 13:00:00 11 18 Oeste 37 Oeste 0 -- -- 61
2019-12-14 12:00:00 10.3 23 Oeste 51 Oeste 0 -- -- 63
2019-12-14 11:00:00 10 29 Oeste 47 Oeste 0 -- -- 64
2019-12-14 10:00:00 9.4 14 Oeste 47 Oeste 0 -- -- 70
2019-12-14 09:00:00 8.5 31 Oeste 58 Oeste 0 -- -- 71
2019-12-14 08:00:00 8.4 33 Oeste 53 Oeste 0 -- -- 71
2019-12-14 07:00:00 8.5 26 Oeste 53 Oeste 0 -- -- 72
2019-12-14 06:00:00 8.8 31 Oeste 57 Oeste 0 -- -- 71
2019-12-14 05:00:00 9.1 28 Oeste 60 Oeste 0 -- -- 69
2019-12-14 04:00:00 9.6 36 Oeste 62 Oeste 0 -- -- 69
2019-12-14 03:00:00 9.9 34 Oeste 54 Oeste 0 -- -- 68
2019-12-14 02:00:00 10.6 29 Oeste 54 Oeste 0 -- -- 65
2019-12-14 01:00:00 10.9 30 Oeste 54 Oeste 0 -- -- 65
2019-12-14 00:00:00 11.4 35 Oeste 69 Oeste 0 -- -- 62
2019-12-13 23:00:00 11.7 40 Oeste 65 Oeste 0 -- -- 64
2019-12-13 22:00:00 11.8 38 Oeste 71 Oeste 0 -- -- 68
2019-12-13 21:00:00 12.4 40 Oeste 71 Oeste 0 -- -- 68
2019-12-13 20:00:00 12.9 43 Oeste 72 Oeste 0 -- -- 67
2019-12-13 19:00:00 13.3 40 Oeste 64 Oeste 0 -- -- 66
2019-12-13 18:00:00 13.5 41 Oeste 69 Oeste 0 -- -- 66
2019-12-13 17:00:00 14.3 40 Oeste 68 Oeste 0 -- -- 64
2019-12-13 16:00:00 14.4 35 Oeste 75 Oeste 0 -- -- 64
2019-12-13 15:00:00 14.4 43 Oeste 76 Oeste 0 -- -- 63
2019-12-13 14:00:00 14.4 47 Oeste 78 Oeste 0 -- -- 62
2019-12-13 13:00:00 14.5 43 Oeste 77 Oeste 0 -- -- 61
2019-12-13 12:00:00 14.3 48 Oeste 80 Oeste 0 -- -- 61
2019-12-13 11:00:00 13.8 47 Oeste 75 Oeste 0 -- -- 62
2019-12-13 10:00:00 12.8 39 Oeste 63 Oeste 0 -- -- 66
2019-12-13 09:00:00 12.4 36 Oeste 73 Oeste 0 -- -- 67
2019-12-13 08:00:00 12.3 43 Oeste 71 Oeste 0 -- -- 71
2019-12-13 07:00:00 12 36 Oeste 66 Oeste 0 -- -- 74
2019-12-13 06:00:00 12.3 39 Oeste 67 Oeste 0 -- -- 72
2019-12-13 05:00:00 11.8 37 Oeste 71 Oeste 0 -- -- 75
2019-12-13 04:00:00 11.2 37 Oeste 67 Oeste 0 -- -- 78
2019-12-13 03:00:00 10.9 35 Oeste 62 Oeste 0 -- -- 77
2019-12-13 02:00:00 10.8 43 Oeste 66 Oeste 0.2 -- -- 78
2019-12-13 01:00:00 10 34 Oeste 53 Sudoeste 0 -- -- 82
2019-12-13 00:00:00 9.7 32 Oeste 57 Sudoeste 0 -- -- 82
2019-12-12 23:00:00 9.5 33 Sudoeste 62 Sudoeste 0 -- -- 79
2019-12-12 22:00:00 9.1 34 Sudoeste 59 Sudoeste 0 -- -- 78
2019-12-12 21:00:00 8.5 38 Sudoeste 64 Sudoeste 0.2 -- -- 78
2019-12-12 20:00:00 7.5 36 Sudoeste 61 Sudoeste 0 -- -- 79
2019-12-12 19:00:00 7.2 37 Sudoeste 64 Oeste 0 -- -- 76
2019-12-12 18:00:00 6.7 36 Sudoeste 56 Oeste 0 -- -- 75
2019-12-12 17:00:00 6.2 31 Sudoeste 62 Sudoeste 0.2 -- -- 77
2019-12-12 16:00:00 6.6 40 Sudoeste 62 Sudoeste 0 -- -- 73
2019-12-12 15:00:00 7.6 35 Sudoeste 63 Oeste 0 -- -- 68
2019-12-12 14:00:00 8 29 Sudoeste 49 Sudoeste 0 -- -- 64
2019-12-12 13:00:00 7.7 24 Oeste 44 Oeste 0 -- -- 66
2019-12-12 12:00:00 7.9 27 Oeste 59 Oeste 0 -- -- 63
2019-12-12 11:00:00 7.7 40 Oeste 60 Oeste 0 -- -- 64
2019-12-12 10:00:00 6.5 29 Oeste 48 Oeste 0 -- -- 66
2019-12-12 09:00:00 5.4 28 Oeste 50 Sudoeste 0 -- -- 71
2019-12-12 08:00:00 4.9 32 Oeste 52 Oeste 0 -- -- 72
2019-12-12 07:00:00 4.4 21 Oeste 48 Oeste 0 -- -- 74
2019-12-12 06:00:00 4.5 30 Oeste 53 Oeste 0 -- -- 75
2019-12-12 05:00:00 4.3 25 Oeste 49 Oeste 0 -- -- 77
2019-12-12 04:00:00 4.5 28 Oeste 63 Oeste 0 -- -- 75
2019-12-12 03:00:00 4.5 35 Oeste 61 Oeste 0 -- -- 76
2019-12-12 02:00:00 4.7 29 Oeste 50 Oeste 0 -- -- 72
2019-12-12 01:00:00 4.9 31 Oeste 58 Sudoeste 0 -- -- 70
2019-12-12 00:00:00 5.3 34 Oeste 63 Oeste 0 -- -- 68
2019-12-11 23:00:00 5 33 Oeste 57 Oeste 0 -- -- 69
2019-12-11 22:00:00 4.7 23 Oeste 53 Oeste 0 -- -- 71
2019-12-11 21:00:00 5 26 Oeste 43 Oeste 0 -- -- 76
2019-12-11 20:00:00 4.6 17 Oeste 33 Oeste 0 -- -- 79
2019-12-11 19:00:00 5.3 22 Oeste 36 Oeste 0 -- -- 81
2019-12-11 18:00:00 5.8 19 Oeste 30 Oeste 0 -- -- 84
2019-12-11 17:00:00 5.7 10 Noroeste 30 Noroeste 0 -- -- 90
2019-12-11 16:00:00 6.6 19 Noroeste 38 Noroeste 0 -- -- 79
2019-12-11 15:00:00 6.6 21 Oeste 41 Oeste 0 -- -- 80
2019-12-11 14:00:00 5.6 29 Oeste 48 Oeste 0 -- -- 79
2019-12-11 13:00:00 6.1 18 Noroeste 33 Oeste 0 -- -- 72
2019-12-11 12:00:00 7.7 25 Oeste 42 Oeste 0 -- -- 52
2019-12-11 11:00:00 10 19 Oeste 37 Oeste 0 -- -- 48
2019-12-11 10:00:00 8.8 3 Nordeste 6 Este 0 -- -- 58
2019-12-11 09:00:00 6.3 0 Calma 8 Sur 0 -- -- 58
2019-12-11 08:00:00 7.1 4 Sudoeste 14 Oeste 0 -- -- 49
2019-12-11 07:00:00 7.5 5 Norte 13 Noroeste 0 -- -- 45
2019-12-11 06:00:00 9.3 10 Oeste 27 Oeste 0 -- -- 42
2019-12-11 05:00:00 8.8 5 Noroeste 23 Oeste 0 -- -- 44
2019-12-11 04:00:00 8.8 8 Sudoeste 26 Oeste 0 -- -- 45
2019-12-11 03:00:00 9 16 Sudoeste 28 Oeste 0 -- -- 45
2019-12-11 02:00:00 7 12 Oeste 25 Sudoeste 0 -- -- 55
2019-12-11 01:00:00 5.2 5 Sur 9 Sur 0 -- -- 59
2019-12-11 00:00:00 5.8 3 Noroeste 8 Noroeste 0 -- -- 55
2019-12-10 23:00:00 7.4 2 Sur 15 Oeste 0 -- -- 47
2019-12-10 22:00:00 9 8 Oeste 18 Oeste 0 -- -- 41
2019-12-10 21:00:00 8.9 5 Sur 16 Sur 0 -- -- 44
2019-12-10 20:00:00 9.4 5 Noroeste 13 Oeste 0 -- -- 46
2019-12-10 19:00:00 10.7 4 Sudoeste 19 Oeste 0 -- -- 39
2019-12-10 18:00:00 11.1 8 Oeste 19 Sudoeste 0 -- -- 39
2019-12-10 17:00:00 12.5 2 Sudoeste 18 Oeste 0 -- -- 41
2019-12-10 16:00:00 13.6 13 Oeste 25 Oeste 0 -- -- 37
2019-12-10 15:00:00 14.4 13 Noroeste 27 Oeste 0 -- -- 34
2019-12-10 14:00:00 14.2 13 Oeste 31 Oeste 0 -- -- 36
2019-12-10 13:00:00 13.6 12 Oeste 33 Oeste 0 -- -- 38
2019-12-10 12:00:00 12.1 19 Oeste 34 Oeste 0 -- -- 36
2019-12-10 11:00:00 10.9 17 Oeste 35 Oeste 0 -- -- 34
2019-12-10 10:00:00 8.4 14 Oeste 30 Sudoeste 0 -- -- 46
2019-12-10 09:00:00 4.7 4 Oeste 9 Oeste 0 -- -- 63
2019-12-10 08:00:00 3.8 4 Noroeste 29 Oeste 0 -- -- 74
2019-12-10 07:00:00 4.3 17 Oeste 40 Oeste 0 -- -- 76
2019-12-10 06:00:00 4.7 22 Oeste 35 Oeste 0 -- -- 75
2019-12-10 05:00:00 4.3 9 Oeste 28 Oeste 0 -- -- 77
2019-12-10 04:00:00 4.6 12 Oeste 32 Noroeste 0 -- -- 76
2019-12-10 03:00:00 4.9 12 Oeste 27 Oeste 0 -- -- 75
2019-12-10 02:00:00 5.5 17 Oeste 29 Oeste 0 -- -- 73
2019-12-10 01:00:00 5.5 18 Noroeste 42 Noroeste 0 -- -- 73
2019-12-10 00:00:00 5.8 22 Noroeste 48 Noroeste 0 -- -- 71
2019-12-09 23:00:00 5.8 30 Noroeste 45 Noroeste 0 -- -- 78
2019-12-09 22:00:00 5.6 13 Noroeste 26 Noroeste 0 -- -- 82
2019-12-09 21:00:00 5.8 13 Noroeste 26 Noroeste 0 -- -- 83
2019-12-09 20:00:00 6.1 13 Noroeste 26 Noroeste 0 -- -- 83
2019-12-09 19:00:00 6.2 12 Oeste 24 Oeste 0 -- -- 81
2019-12-09 18:00:00 6.9 16 Noroeste 34 Noroeste 0 -- -- 79
2019-12-09 17:00:00 8.4 19 Noroeste 40 Noroeste 0 -- -- 75
2019-12-09 16:00:00 9.2 24 Noroeste 46 Noroeste 0 -- -- 69
2019-12-09 15:00:00 9.9 26 Noroeste 46 Noroeste 0 -- -- 66
2019-12-09 14:00:00 10.5 26 Oeste 45 Noroeste 0 -- -- 61
2019-12-09 13:00:00 9.6 24 Oeste 46 Oeste 0 -- -- 63
2019-12-09 12:00:00 8.8 22 Oeste 35 Oeste 0 -- -- 67
2019-12-09 11:00:00 7.6 21 Oeste 32 Oeste 0 -- -- 75
2019-12-09 10:00:00 5.8 9 Oeste 27 Noroeste 0 -- -- 86
2019-12-09 09:00:00 5.1 19 Noroeste 31 Noroeste 0 -- -- 86
2019-12-09 08:00:00 5.8 8 Oeste 31 Oeste 0 -- -- 76
2019-12-09 07:00:00 5.6 11 Sudoeste 29 Oeste 0 -- -- 78
2019-12-09 06:00:00 5.7 14 Oeste 23 Oeste 0 -- -- 83
2019-12-09 05:00:00 6.2 14 Oeste 37 Oeste 0 -- -- 81
2019-12-09 04:00:00 6.2 17 Noroeste 28 Noroeste 0 -- -- 85
2019-12-09 03:00:00 6.8 14 Oeste 33 Oeste 0 -- -- 86
2019-12-09 02:00:00 7 15 Noroeste 29 Oeste 0 -- -- 89
2019-12-09 01:00:00 7.9 17 Oeste 35 Oeste 0 -- -- 91
2019-12-09 00:00:00 8.3 18 Oeste 32 Oeste 0 -- -- 91
2019-12-08 23:00:00 8.9 18 Oeste 33 Oeste 0 -- -- 90
2019-12-08 22:00:00 9.5 19 Oeste 30 Oeste 0 -- -- 89
2019-12-08 21:00:00 9.5 17 Oeste 31 Oeste 1.2 -- -- 91
2019-12-08 20:00:00 9.3 14 Oeste 40 Oeste 1.4 -- -- 91
2019-12-08 19:00:00 9.3 15 Oeste 36 Oeste 0.6 -- -- 89
2019-12-08 18:00:00 10.5 26 Oeste 45 Oeste 0 -- -- 78
2019-12-08 17:00:00 11.5 20 Oeste 34 Oeste 0 -- -- 75
2019-12-08 16:00:00 12.4 15 Oeste 32 Oeste 0 -- -- 68
2019-12-08 15:00:00 13.4 18 Oeste 35 Oeste 0 -- -- 62
2019-12-08 14:00:00 12.6 23 Oeste 40 Oeste 0 -- -- 64
2019-12-08 13:00:00 11.9 22 Oeste 37 Oeste 0 -- -- 62
2019-12-08 12:00:00 10.9 23 Oeste 37 Oeste 0 -- -- 66
2019-12-08 11:00:00 10.1 14 Oeste 27 Noroeste 0 -- -- 75
2019-12-08 10:00:00 8 5 Oeste 14 Oeste 0 -- -- 81
2019-12-08 09:00:00 6.7 6 Noroeste 19 Oeste 0 -- -- 79
2019-12-08 08:00:00 5.6 6 Sudoeste 13 Oeste 0 -- -- 86
2019-12-08 07:00:00 3.7 0 Calma 8 Oeste 0 -- -- 87
2019-12-08 06:00:00 4.5 7 Oeste 17 Oeste 0 -- -- 88
2019-12-08 05:00:00 3.6 5 Sur 7 Sur 0 -- -- 91
2019-12-08 04:00:00 4 5 Sur 9 Sur 0 -- -- 91
2019-12-08 03:00:00 4.1 5 Sur 10 Sur 0 -- -- 89
2019-12-08 02:00:00 3.8 5 Sur 9 Sur 0 -- -- 90
2019-12-08 01:00:00 4 0 Calma 9 Sur 0 -- -- 86
2019-12-08 00:00:00 4.4 7 Sur 10 Sur 0 -- -- 86
2019-12-07 23:00:00 4.3 6 Sur 9 Sur 0 -- -- 88
2019-12-07 22:00:00 4.9 0 Calma 13 Sur 0 -- -- 85
2019-12-07 21:00:00 6.1 9 Sur 13 Sur 0 -- -- 84
2019-12-07 20:00:00 6.3 10 Sur 15 Sur 0 -- -- 87
2019-12-07 19:00:00 7.2 4 Sur 8 Sudoeste 0 -- -- 89
2019-12-07 18:00:00 9.2 2 Sudoeste 11 Norte 0 -- -- 83
2019-12-07 17:00:00 11.5 5 Norte 12 Noroeste 0 -- -- 75
2019-12-07 16:00:00 12.6 5 Norte 11 Norte 0 -- -- 68
2019-12-07 15:00:00 12.5 3 Norte 12 Norte 0 -- -- 71
2019-12-07 14:00:00 12.5 6 Noroeste 13 Noroeste 0 -- -- 69
2019-12-07 13:00:00 12 6 Norte 12 Norte 0 -- -- 70
2019-12-07 12:00:00 11.1 3 Noroeste 6 Sudoeste 0 -- -- 72
2019-12-07 11:00:00 9.3 0 Calma 3 Oeste 0 -- -- 77
2019-12-07 10:00:00 6.5 0 Calma 9 Sur 0 -- -- 91
2019-12-07 09:00:00 4.1 6 Sur 10 Sur 0 -- -- 94
2019-12-07 08:00:00 3.5 6 Sur 11 Sur 0 -- -- 92
2019-12-07 07:00:00 4.5 7 Sur 10 Sur 0 -- -- 91
2019-12-07 06:00:00 4.3 9 Sur 13 Sur 0 -- -- 93
2019-12-07 05:00:00 3.7 6 Sur 10 Sur 0 -- -- 96
2019-12-07 04:00:00 2.7 3 Sur 5 Sur 0 -- -- 94
2019-12-07 03:00:00 4.2 2 Sur 6 Sur 0 -- -- 92
2019-12-07 02:00:00 4.6 6 Sur 8 Sur 0 -- -- 92
2019-12-07 01:00:00 5 4 Sur 6 Sur 0 -- -- 91
2019-12-07 00:00:00 4.8 2 Sur 6 Sur 0 -- -- 91
2019-12-06 23:00:00 4.7 0 Calma 10 Sur 0 -- -- 92
2019-12-06 22:00:00 6.1 9 Sur 14 Sur 0 -- -- 95
2019-12-06 21:00:00 5.7 6 Sur 9 Sur 0 -- -- 96
2019-12-06 20:00:00 6.6 4 Sur 6 Sur 0 -- -- 96
2019-12-06 19:00:00 7.5 3 Sur 6 Sur 0 -- -- 95
2019-12-06 18:00:00 8.5 0 Calma 8 Oeste 0 -- -- 91
2019-12-06 17:00:00 9.7 5 Este 12 Este 0 -- -- 86
2019-12-06 16:00:00 10.9 9 Este 12 Este 0 -- -- 82
2019-12-06 15:00:00 10.9 6 Este 11 Nordeste 0 -- -- 83
2019-12-06 14:00:00 9.9 9 Nordeste 12 Nordeste 0 -- -- 88
2019-12-06 13:00:00 10.2 7 Este 17 Sudeste 0 -- -- 86
2019-12-06 12:00:00 8.7 7 Sudeste 13 Sudeste 0 -- -- 94
2019-12-06 11:00:00 7.3 5 Sudeste 8 Sudeste 0 -- -- 98
2019-12-06 10:00:00 6.5 0 Calma 4 Oeste 0 -- -- 99
2019-12-06 09:00:00 6 0 Calma 7 Sur 0 -- -- 98
2019-12-06 08:00:00 5.9 3 Sudoeste 5 Sur 0 -- -- 97
2019-12-06 07:00:00 5.8 0 Calma 4 Sudoeste 0 -- -- 96
2019-12-06 06:00:00 5.7 2 Sudoeste 5 Sudoeste 0 -- -- 96
2019-12-06 05:00:00 5.6 0 Calma 5 Sudoeste 0.2 -- -- 97
2019-12-06 04:00:00 5.4 0 Calma 7 Sur 0 -- -- 97
2019-12-06 03:00:00 5.3 4 Oeste 10 Oeste 0 -- -- 98
2019-12-06 02:00:00 5.5 5 Oeste 9 Oeste 0 -- -- 98
2019-12-06 01:00:00 5.6 4 Oeste 9 Oeste 0.4 -- -- 98
2019-12-06 00:00:00 5.7 5 Noroeste 11 Noroeste 0 -- -- 98
2019-12-05 23:00:00 5.9 5 Oeste 11 Oeste 0 -- -- 98
2019-12-05 22:00:00 6 2 Oeste 4 Oeste 0 -- -- 99
2019-12-05 21:00:00 6 2 Oeste 5 Noroeste 0 -- -- 99
2019-12-05 20:00:00 6 3 Oeste 5 Sudoeste 0 -- -- 99
2019-12-05 19:00:00 5.9 3 Oeste 8 Noroeste 0.2 -- -- 99
2019-12-05 18:00:00 5.9 5 Noroeste 10 Noroeste 0.4 -- -- 99
2019-12-05 17:00:00 6 6 Noroeste 11 Norte 0 -- -- 100
2019-12-05 16:00:00 5.7 8 Noroeste 15 Noroeste 0.2 -- -- 100
2019-12-05 15:00:00 5.9 8 Noroeste 16 Noroeste 0 -- -- 100
2019-12-05 14:00:00 6 7 Noroeste 14 Noroeste 0.6 -- -- 100
2019-12-05 13:00:00 5.6 6 Norte 13 Noroeste 0.2 -- -- 100
2019-12-05 12:00:00 5.3 8 Noroeste 14 Noroeste 0.4 -- -- 100
2019-12-05 11:00:00 4.8 6 Noroeste 15 Noroeste 0.6 -- -- 100
2019-12-05 10:00:00 4.7 8 Noroeste 13 Noroeste 0.6 -- -- 100
2019-12-05 09:00:00 4.4 7 Noroeste 13 Noroeste 0.2 -- -- 100
2019-12-05 08:00:00 4.9 10 Noroeste 14 Noroeste 0.2 -- -- 100
2019-12-05 07:00:00 5.3 9 Noroeste 15 Noroeste 0 -- -- 100
2019-12-05 06:00:00 5.2 6 Norte 17 Noroeste 0.8 -- -- 100
2019-12-05 05:00:00 5 9 Norte 17 Norte 0 -- -- 99
2019-12-05 04:00:00 5 10 Norte 20 Norte 0.2 -- -- 99
2019-12-05 03:00:00 5 12 Norte 18 Norte 0.2 -- -- 99
2019-12-05 02:00:00 4.8 8 Noroeste 14 Norte 0 -- -- 99
2019-12-05 01:00:00 4.8 7 Noroeste 21 Norte 0.2 -- -- 99
2019-12-05 00:00:00 4.9 13 Norte 23 Noroeste 0.2 -- -- 99
2019-12-04 23:00:00 5 11 Norte 22 Norte 0.6 -- -- 99
2019-12-04 22:00:00 5.4 10 Norte 17 Norte 0.8 -- -- 99
2019-12-04 21:00:00 5.3 6 Norte 16 Noroeste 1.6 -- -- 99
2019-12-04 20:00:00 5.3 11 Norte 23 Norte 1.2 -- -- 99
2019-12-04 19:00:00 5.4 12 Norte 22 Norte 1.2 -- -- 99
2019-12-04 18:00:00 5.4 10 Norte 19 Norte 1.6 -- -- 99
2019-12-04 17:00:00 5.2 10 Norte 21 Norte 0.8 -- -- 99
2019-12-04 16:00:00 5.2 11 Noroeste 19 Norte 0.4 -- -- 98
2019-12-04 15:00:00 5.4 9 Norte 17 Norte 0.4 -- -- 98
2019-12-04 14:00:00 4.8 10 Norte 22 Noroeste 1.4 -- -- 97
2019-12-04 13:00:00 4.6 13 Noroeste 20 Noroeste 0.2 -- -- 96
2019-12-04 12:00:00 4.3 5 Noroeste 14 Norte 0.8 -- -- 94
2019-12-04 11:00:00 4.3 6 Norte 11 Norte 0 -- -- 92
2019-12-04 10:00:00 4 4 Noroeste 9 Noroeste 0 -- -- 93
2019-12-04 09:00:00 3.5 3 Oeste 8 Noroeste 0 -- -- 94
2019-12-04 08:00:00 3.4 3 Noroeste 8 Noroeste 0 -- -- 94
2019-12-04 07:00:00 3.4 4 Noroeste 8 Noroeste 0 -- -- 94
2019-12-04 06:00:00 3.2 4 Noroeste 8 Noroeste 0 -- -- 93
2019-12-04 05:00:00 3 4 Noroeste 10 Noroeste 0 -- -- 94
2019-12-04 04:00:00 2.8 4 Noroeste 8 Noroeste 0 -- -- 95
2019-12-04 03:00:00 2.6 4 Oeste 12 Oeste 0.2 -- -- 95
2019-12-04 02:00:00 2.4 3 Noroeste 9 Noroeste 0 -- -- 95
2019-12-04 01:00:00 2.4 4 Noroeste 9 Noroeste 0 -- -- 94
2019-12-04 00:00:00 2.4 5 Noroeste 12 Oeste 0 -- -- 93
2019-12-03 23:00:00 2.3 4 Oeste 8 Oeste 1 -- -- 93
2019-12-03 22:00:00 2.5 2 Noroeste 4 Noroeste 0 -- -- 92
2019-12-03 21:00:00 2.3 0 Calma 5 Oeste 0 -- -- 91
2019-12-03 20:00:00 1.9 2 Oeste 5 Nordeste 0 -- -- 92
2019-12-03 19:00:00 1.5 2 Norte 3 Noroeste 0 -- -- 88
2019-12-03 18:00:00 3 2 Norte 9 Noroeste 0 -- -- 84
2019-12-03 17:00:00 3.8 6 Noroeste 10 Norte 0 -- -- 79
2019-12-03 16:00:00 4 5 Norte 10 Noroeste 0 -- -- 78
2019-12-03 15:00:00 4.2 4 Norte 12 Norte 0 -- -- 76
2019-12-03 14:00:00 4 8 Norte 15 Norte 0 -- -- 75
2019-12-03 13:00:00 4.2 9 Noroeste 15 Noroeste 0 -- -- 77
2019-12-03 12:00:00 3.4 8 Noroeste 18 Noroeste 0 -- -- 80
2019-12-03 11:00:00 2.9 10 Noroeste 19 Noroeste 0 -- -- 84
2019-12-03 10:00:00 1.9 8 Noroeste 16 Noroeste 0 -- -- 87
2019-12-03 09:00:00 1 6 Noroeste 14 Oeste 0 -- -- 91
2019-12-03 08:00:00 0.1 5 Oeste 15 Oeste 0 -- -- 91
2019-12-03 07:00:00 0.6 8 Oeste 14 Oeste 0 -- -- 90
2019-12-03 06:00:00 0.9 8 Oeste 18 Oeste 0 -- -- 90
2019-12-03 05:00:00 1.6 9 Noroeste 24 Oeste 0 -- -- 89
2019-12-03 04:00:00 1.7 11 Noroeste 22 Oeste 0 -- -- 88
2019-12-03 03:00:00 0.9 8 Oeste 19 Oeste 0 -- -- 88
2019-12-03 02:00:00 1.1 10 Oeste 20 Oeste 0 -- -- 87
2019-12-03 01:00:00 1.5 11 Oeste 26 Oeste 0 -- -- 85
2019-12-03 00:00:00 2.4 15 Oeste 28 Oeste 0 -- -- 83
2019-12-02 23:00:00 3.3 12 Noroeste 26 Noroeste 0 -- -- 84
2019-12-02 22:00:00 3.9 14 Noroeste 30 Noroeste 0 -- -- 83
2019-12-02 21:00:00 4.4 12 Noroeste 24 Oeste 0 -- -- 84
2019-12-02 20:00:00 5 13 Noroeste 27 Noroeste 0 -- -- 84
2019-12-02 19:00:00 5.7 13 Noroeste 26 Noroeste 0 -- -- 81
2019-12-02 18:00:00 6.5 15 Noroeste 26 Noroeste 0 -- -- 81
2019-12-02 17:00:00 7.4 10 Noroeste 19 Noroeste 0 -- -- 79
2019-12-02 16:00:00 7.6 9 Noroeste 16 Noroeste 0 -- -- 77
2019-12-02 15:00:00 7.7 9 Norte 20 Noroeste 0 -- -- 77
2019-12-02 14:00:00 8.2 9 Noroeste 18 Noroeste 0 -- -- 77
2019-12-02 13:00:00 7.3 10 Noroeste 22 Noroeste 0 -- -- 81
2019-12-02 12:00:00 7.2 9 Noroeste 19 Noroeste 0 -- -- 85
2019-12-02 11:00:00 6 8 Noroeste 14 Noroeste 0 -- -- 89
2019-12-02 10:00:00 5 8 Noroeste 15 Noroeste 0 -- -- 93
2019-12-02 09:00:00 4.4 7 Noroeste 13 Noroeste 0 -- -- 94
2019-12-02 08:00:00 4.1 6 Noroeste 14 Noroeste 0 -- -- 94
2019-12-02 07:00:00 4.2 9 Noroeste 19 Noroeste 0 -- -- 93
2019-12-02 06:00:00 4.5 8 Noroeste 13 Noroeste 0 -- -- 92
2019-12-02 05:00:00 4.7 5 Noroeste 12 Noroeste 0 -- -- 92
2019-12-02 04:00:00 5 6 Noroeste 13 Noroeste 0 -- -- 92
2019-12-02 03:00:00 5.3 4 Noroeste 10 Noroeste 0 -- -- 92
2019-12-02 02:00:00 5.2 2 Noroeste 6 Noroeste 0 -- -- 91
2019-12-02 01:00:00 5.3 3 Oeste 7 Oeste 0 -- -- 89
2019-12-02 00:00:00 4.8 2 Sudoeste 4 Sudoeste 0 -- -- 90
2019-12-01 23:00:00 4.6 2 Sudoeste 5 Oeste 0 -- -- 89
2019-12-01 22:00:00 4.2 3 Sur 8 Sur 0 -- -- 89
2019-12-01 21:00:00 3.7 4 Sur 8 Sur 0 -- -- 88
2019-12-01 20:00:00 4 0 Calma 5 Sur 0 -- -- 85
2019-12-01 19:00:00 5.4 2 Sur 4 Oeste 0 -- -- 80
2019-12-01 18:00:00 6.9 4 Noroeste 7 Noroeste 0 -- -- 72
2019-12-01 17:00:00 8.8 5 Noroeste 15 Noroeste 0 -- -- 66
2019-12-01 16:00:00 10.6 10 Noroeste 17 Noroeste 0 -- -- 59
2019-12-01 15:00:00 10.6 9 Oeste 17 Oeste 0 -- -- 56
2019-12-01 14:00:00 9.7 6 Noroeste 13 Noroeste 0 -- -- 64
2019-12-01 13:00:00 10.1 9 Oeste 17 Oeste 0 -- -- 61
2019-12-01 12:00:00 9.6 4 Oeste 16 Oeste 0 -- -- 62
2019-12-01 11:00:00 8.5 9 Oeste 21 Sudoeste 0 -- -- 67
2019-12-01 10:00:00 7 10 Sudoeste 21 Sudoeste 0 -- -- 74
2019-12-01 09:00:00 5.1 11 Sudoeste 23 Sudoeste 0 -- -- 82
2019-12-01 08:00:00 4.6 6 Sudeste 18 Sudoeste 0 -- -- 82
2019-12-01 07:00:00 4.3 6 Sudoeste 18 Sudoeste 0 -- -- 86
2019-12-01 06:00:00 5 11 Sudoeste 20 Sudoeste 0 -- -- 84
2019-12-01 05:00:00 5.9 4 Sudoeste 13 Sudoeste 0 -- -- 83
2019-12-01 04:00:00 5.9 7 Sudoeste 15 Sur 0.2 -- -- 89
2019-12-01 03:00:00 5.6 10 Sudeste 18 Sudeste 0.8 -- -- 94
2019-12-01 02:00:00 5.7 4 Sur 13 Oeste 0.6 -- -- 90
2019-12-01 01:00:00 6.2 5 Oeste 31 Oeste 1.2 -- -- 88
2019-12-01 00:00:00 6.8 15 Oeste 35 Oeste 0.8 -- -- 85
2019-11-30 23:00:00 7.3 13 Noroeste 30 Noroeste 0.6 -- -- 94
2019-11-30 22:00:00 10 13 Noroeste 30 Oeste 0 -- -- 87
2019-11-30 21:00:00 12.1 9 Sudoeste 17 Sudoeste 0 -- -- 68
2019-11-30 20:00:00 12.2 9 Sudoeste 23 Sur 0 -- -- 65
2019-11-30 19:00:00 13.6 19 Sudoeste 53 Sudoeste 0 -- -- 60
2019-11-30 18:00:00 13.9 21 Sudoeste 43 Sudoeste 0 -- -- 61
2019-11-30 17:00:00 15.1 23 Sudoeste 44 Sudoeste 0 -- -- 58
2019-11-30 16:00:00 16.6 27 Sudoeste 44 Sudoeste 0 -- -- 54
2019-11-30 15:00:00 18.2 11 Sudoeste 24 Sudoeste 0 -- -- 51
2019-11-30 14:00:00 16.8 5 Norte 13 Norte 0 -- -- 55
2019-11-30 13:00:00 15.2 8 Norte 14 Norte 0 -- -- 61
2019-11-30 12:00:00 15 5 Oeste 18 Sudeste 0 -- -- 64
2019-11-30 11:00:00 13.6 11 Sur 21 Sur 0 -- -- 71
2019-11-30 10:00:00 12.8 12 Sudoeste 20 Sudoeste 0 -- -- 73
2019-11-30 09:00:00 10.3 4 Sur 9 Sur 0 -- -- 83
2019-11-30 08:00:00 9.3 5 Sudeste 13 Sudeste 0 -- -- 84
2019-11-30 07:00:00 9.7 11 Sur 15 Sur 0 -- -- 86
2019-11-30 06:00:00 8.2 5 Sur 9 Sudeste 0 -- -- 90
2019-11-30 05:00:00 9.2 8 Sudeste 17 Sudoeste 0 -- -- 88
2019-11-30 04:00:00 8.4 7 Sur 10 Sudoeste 0 -- -- 92
2019-11-30 03:00:00 8.6 6 Sur 12 Sur 0 -- -- 92
2019-11-30 02:00:00 8.8 9 Sur 12 Sur 0 -- -- 92
2019-11-30 01:00:00 9.2 7 Sudoeste 11 Sudoeste 0 -- -- 90
2019-11-30 00:00:00 8.6 3 Sur 9 Sur 0 -- -- 92
2019-11-29 23:00:00 8.5 6 Sudoeste 11 Sudoeste 0 -- -- 91
2019-11-29 22:00:00 8.7 2 Sur 9 Sudeste 0 -- -- 88
2019-11-29 21:00:00 9.4 4 Sur 6 Sudeste 0 -- -- 87
2019-11-29 20:00:00 9.8 3 Sur 4 Sur 0 -- -- 86
2019-11-29 19:00:00 10.3 2 Sudoeste 6 Noroeste 0 -- -- 83
2019-11-29 18:00:00 10.9 3 Norte 6 Norte 0 -- -- 81
2019-11-29 17:00:00 12 3 Noroeste 16 Noroeste 0 -- -- 78
2019-11-29 16:00:00 13.1 8 Norte 22 Norte 0 -- -- 74
2019-11-29 15:00:00 14.7 6 Oeste 16 Noroeste 0 -- -- 68
2019-11-29 14:00:00 14 5 Noroeste 18 Norte 0 -- -- 71
2019-11-29 13:00:00 12.8 13 Norte 21 Norte 0 -- -- 77
2019-11-29 12:00:00 13.1 11 Noroeste 33 Oeste 0 -- -- 79
2019-11-29 11:00:00 12.4 11 Oeste 21 Oeste 0 -- -- 81
2019-11-29 10:00:00 12 7 Oeste 17 Noroeste 0 -- -- 80
2019-11-29 09:00:00 11 8 Oeste 29 Oeste 0 -- -- 81
2019-11-29 08:00:00 10.8 20 Oeste 36 Sudoeste 0 -- -- 80
2019-11-29 07:00:00 11 22 Sudoeste 32 Sudoeste 0 -- -- 79
2019-11-29 06:00:00 11.1 23 Sudoeste 41 Oeste 0 -- -- 79
2019-11-29 05:00:00 11.3 25 Sudoeste 44 Oeste 0 -- -- 78
2019-11-29 04:00:00 11.3 24 Sudoeste 41 Sudoeste 0 -- -- 76
2019-11-29 03:00:00 11.4 17 Oeste 35 Sudoeste 0 -- -- 75
2019-11-29 02:00:00 11.4 6 Oeste 24 Sudoeste 0 -- -- 73
2019-11-29 01:00:00 11.3 14 Sudoeste 27 Sudoeste 0 -- -- 72
2019-11-29 00:00:00 11.6 13 Sudoeste 35 Sudoeste 0 -- -- 70
2019-11-28 23:00:00 11.6 20 Sudoeste 41 Sudoeste 0 -- -- 69
2019-11-28 22:00:00 11.4 18 Sudoeste 30 Sudoeste 0 -- -- 68
2019-11-28 21:00:00 11.2 14 Sudoeste 31 Sudoeste 0 -- -- 67
2019-11-28 20:00:00 11 12 Sudoeste 32 Sudoeste 0 -- -- 66
2019-11-28 19:00:00 11.1 24 Sudoeste 43 Sudoeste 0 -- -- 64
2019-11-28 18:00:00 11.4 23 Sudoeste 44 Sudoeste 0 -- -- 62
2019-11-28 17:00:00 12.6 22 Sudoeste 42 Sudoeste 0 -- -- 59
2019-11-28 16:00:00 12.7 19 Oeste 37 Sudoeste 0 -- -- 61
2019-11-28 15:00:00 13.7 19 Oeste 35 Sudoeste 0 -- -- 56
2019-11-28 14:00:00 13.6 14 Sudoeste 39 Sudoeste 0 -- -- 58
2019-11-28 13:00:00 14.4 22 Oeste 40 Oeste 0 -- -- 54
2019-11-28 12:00:00 14.2 23 Sudoeste 50 Oeste 0 -- -- 57
2019-11-28 11:00:00 13.2 29 Oeste 53 Oeste 0 -- -- 61
2019-11-28 10:00:00 11.4 12 Oeste 22 Oeste 0 -- -- 66
2019-11-28 09:00:00 9.1 3 Sudeste 15 Sudoeste 0 -- -- 73
2019-11-28 08:00:00 8.3 6 Sudoeste 22 Sudoeste 0 -- -- 74
2019-11-28 07:00:00 9.3 6 Oeste 39 Sudoeste 0 -- -- 70
2019-11-28 06:00:00 9.7 20 Sudoeste 43 Sudoeste 0 -- -- 68
2019-11-28 05:00:00 9.6 21 Sudoeste 49 Sudoeste 0 -- -- 70
2019-11-28 04:00:00 9.4 25 Sudoeste 42 Sudoeste 0 -- -- 71
2019-11-28 03:00:00 9.6 18 Sudoeste 29 Oeste 0 -- -- 70
2019-11-28 02:00:00 9.4 5 Noroeste 33 Sudoeste 0 -- -- 70
2019-11-28 01:00:00 9.6 20 Sudoeste 36 Sudoeste 0 -- -- 69
2019-11-28 00:00:00 9.9 17 Oeste 35 Oeste 0 -- -- 68
2019-11-27 23:00:00 9.8 22 Sudoeste 40 Sudoeste 0 -- -- 69
2019-11-27 22:00:00 10.3 26 Sudoeste 45 Sudoeste 0 -- -- 66
2019-11-27 21:00:00 10.7 18 Sudoeste 41 Sudoeste 0 -- -- 63
2019-11-27 20:00:00 11.1 24 Sudoeste 40 Sudoeste 0 -- -- 61
2019-11-27 19:00:00 11.2 24 Sudoeste 37 Oeste 0 -- -- 61
2019-11-27 18:00:00 10.9 8 Oeste 28 Oeste 0 -- -- 59
2019-11-27 17:00:00 12.9 16 Oeste 29 Oeste 0 -- -- 52
2019-11-27 16:00:00 13.5 21 Oeste 46 Oeste 0 -- -- 51
2019-11-27 15:00:00 14.1 22 Oeste 41 Oeste 0 -- -- 50
2019-11-27 14:00:00 13.7 19 Oeste 40 Sudoeste 0 -- -- 52
2019-11-27 06:00:00 11.8 16 Oeste 49 Oeste 0 -- -- 69
2019-11-27 05:00:00 12.1 20 Oeste 44 Sudoeste 0 -- -- 70
2019-11-27 04:00:00 12.2 26 Sudoeste 44 Sudoeste 0 -- -- 70
2019-11-27 03:00:00 12.6 24 Sudoeste 53 Sudoeste 0 -- -- 65
2019-11-27 02:00:00 13.3 22 Sudoeste 47 Sudoeste 0 -- -- 61
2019-11-27 01:00:00 14 11 Oeste 25 Oeste 0 -- -- 67
2019-11-27 00:00:00 12.8 6 Este 22 Sur 0 -- -- 77
2019-11-26 23:00:00 13.3 16 Sudoeste 28 Sudoeste 0 -- -- 73
2019-11-26 22:00:00 14.5 17 Sudoeste 39 Sudoeste 0 -- -- 65
2019-11-26 21:00:00 14.3 25 Sudoeste 38 Sudoeste 0 -- -- 65
2019-11-26 20:00:00 13.9 17 Sur 31 Sur 0 -- -- 65
2019-11-26 19:00:00 14.4 19 Sudoeste 30 Sudoeste 0 -- -- 63
2019-11-26 18:00:00 15 10 Sudoeste 38 Sudoeste 0 -- -- 61
2019-11-26 17:00:00 16.4 18 Sudoeste 32 Sudoeste 0 -- -- 57
2019-11-26 16:00:00 17.9 6 Sur 33 Oeste 0 -- -- 53
2019-11-26 15:00:00 17.7 21 Sudoeste 41 Sudoeste 0 -- -- 56
2019-11-26 14:00:00 16.9 27 Sudoeste 40 Sudoeste 0 -- -- 56
2019-11-26 13:00:00 17 17 Oeste 31 Sudoeste 0 -- -- 56
2019-11-26 12:00:00 15.4 13 Sudoeste 26 Sudoeste 0 -- -- 59
2019-11-26 11:00:00 12.6 7 Sudoeste 27 Sudoeste 0 -- -- 69
2019-11-26 10:00:00 11.7 10 Oeste 24 Oeste 0 -- -- 72
2019-11-26 09:00:00 6.8 4 Sur 8 Sur 0 -- -- 89
2019-11-26 08:00:00 7.1 5 Sudeste 14 Este 0 -- -- 87
2019-11-26 07:00:00 6.5 4 Sudeste 8 Este 0 -- -- 90
2019-11-26 06:00:00 6.8 4 Sur 6 Sur 0 -- -- 87
2019-11-26 05:00:00 8.3 3 Sur 12 Sudoeste 0 -- -- 83
2019-11-26 04:00:00 7.8 2 Sur 14 Oeste 0 -- -- 84
2019-11-26 03:00:00 9.9 10 Oeste 21 Oeste 0 -- -- 79
2019-11-26 02:00:00 9.6 3 Noroeste 15 Oeste 0 -- -- 78
2019-11-26 01:00:00 9.9 5 Oeste 12 Oeste 0 -- -- 78
2019-11-26 00:00:00 10.1 7 Oeste 15 Oeste 0 -- -- 77
2019-11-25 23:00:00 10.7 12 Oeste 18 Oeste 0 -- -- 74
2019-11-25 22:00:00 10.1 10 Oeste 23 Oeste 0 -- -- 75
2019-11-25 21:00:00 10.2 7 Oeste 13 Oeste 0 -- -- 77
2019-11-25 20:00:00 10.5 8 Sudoeste 13 Sudoeste 0 -- -- 76
2019-11-25 19:00:00 10.9 7 Sudoeste 13 Sudoeste 0 -- -- 74
2019-11-25 18:00:00 12 9 Sudoeste 25 Oeste 0 -- -- 69
2019-11-25 17:00:00 13.4 14 Oeste 24 Oeste 0 -- -- 64
2019-11-25 16:00:00 14.5 17 Oeste 40 Oeste 0 -- -- 61
2019-11-25 15:00:00 14.5 23 Oeste 42 Oeste 0 -- -- 62
2019-11-25 14:00:00 15 23 Oeste 50 Oeste 0 -- -- 57
2019-11-25 13:00:00 14.6 27 Oeste 51 Oeste 0 -- -- 56
2019-11-25 12:00:00 14.1 30 Oeste 46 Oeste 0 -- -- 60
2019-11-25 11:00:00 12.9 28 Oeste 55 Sudoeste 0 -- -- 64
2019-11-25 10:00:00 11.9 29 Oeste 48 Oeste 0 -- -- 70
2019-11-25 09:00:00 10.4 20 Oeste 44 Oeste 0 -- -- 76
2019-11-25 08:00:00 9.5 25 Oeste 42 Oeste 0 -- -- 79
2019-11-25 07:00:00 9.4 25 Oeste 41 Oeste 0 -- -- 79
2019-11-25 06:00:00 9.1 28 Sudoeste 56 Sudoeste 0 -- -- 80
2019-11-25 05:00:00 9.2 32 Sudoeste 53 Sudoeste 0 -- -- 78
2019-11-25 04:00:00 9.1 23 Sudoeste 35 Sudoeste 0 -- -- 76
2019-11-25 03:00:00 8.2 6 Sudoeste 15 Oeste 0 -- -- 76
2019-11-25 02:00:00 7.5 2 Sudoeste 23 Oeste 0 -- -- 75
2019-11-25 01:00:00 8.4 10 Oeste 28 Oeste 0 -- -- 72
2019-11-25 00:00:00 8.6 9 Noroeste 37 Oeste 0 -- -- 70
2019-11-24 23:00:00 8.9 26 Oeste 52 Oeste 0 -- -- 66
2019-11-24 22:00:00 7.9 11 Sudoeste 35 Oeste 0 -- -- 63
2019-11-24 21:00:00 7 12 Oeste 21 Oeste 0 -- -- 69
2019-11-24 20:00:00 6.9 11 Oeste 25 Oeste 0 -- -- 68
2019-11-24 19:00:00 6.3 8 Oeste 16 Oeste 0 -- -- 72
2019-11-24 18:00:00 6.6 4 Oeste 30 Oeste 0 -- -- 71
2019-11-24 17:00:00 7.8 22 Oeste 40 Oeste 0 -- -- 67
2019-11-24 16:00:00 9.2 19 Oeste 39 Oeste 0 -- -- 62
2019-11-24 15:00:00 9.3 23 Oeste 41 Oeste 0 -- -- 62
2019-11-24 14:00:00 9.2 14 Oeste 35 Oeste 0 -- -- 63
2019-11-24 13:00:00 8.2 20 Oeste 40 Oeste 0 -- -- 66
2019-11-24 12:00:00 7.6 28 Oeste 51 Oeste 0 -- -- 68
2019-11-24 11:00:00 7 27 Oeste 45 Oeste 0 -- -- 70
2019-11-24 10:00:00 6.3 18 Oeste 43 Oeste 0 -- -- 72
2019-11-24 09:00:00 4.9 26 Oeste 46 Oeste 0 -- -- 77
2019-11-24 08:00:00 4.4 24 Oeste 43 Oeste 0 -- -- 79
2019-11-24 07:00:00 4.6 22 Oeste 46 Oeste 0 -- -- 78
2019-11-24 06:00:00 4.6 23 Oeste 43 Oeste 0 -- -- 79
2019-11-24 05:00:00 5.2 24 Oeste 53 Oeste 0 -- -- 77
2019-11-24 04:00:00 6.1 31 Oeste 47 Oeste 0 -- -- 73
2019-11-24 03:00:00 6.2 27 Oeste 55 Oeste 0 -- -- 73
2019-11-24 02:00:00 6.1 32 Oeste 53 Oeste 0 -- -- 73
2019-11-24 01:00:00 6.4 32 Oeste 47 Oeste 0 -- -- 72
2019-11-24 00:00:00 6.3 19 Oeste 33 Oeste 0 -- -- 73
2019-11-23 23:00:00 6.3 9 Oeste 36 Oeste 0 -- -- 73
2019-11-23 22:00:00 6.5 17 Oeste 31 Oeste 0 -- -- 72
2019-11-23 21:00:00 6.6 19 Oeste 36 Oeste 0 -- -- 71
2019-11-23 20:00:00 7 15 Oeste 39 Oeste 0 -- -- 70
2019-11-23 19:00:00 7.4 20 Oeste 35 Oeste 0 -- -- 67
2019-11-23 18:00:00 8 18 Oeste 42 Oeste 0 -- -- 62
2019-11-23 17:00:00 9 28 Oeste 53 Oeste 0 -- -- 62
2019-11-23 16:00:00 8.7 30 Oeste 58 Oeste 0 -- -- 61
2019-11-23 15:00:00 8.6 35 Oeste 67 Oeste 0 -- -- 61
2019-11-23 14:00:00 8.4 32 Oeste 50 Oeste 0 -- -- 65
2019-11-23 13:00:00 6.8 32 Oeste 56 Oeste 0 -- -- 73
2019-11-23 12:00:00 6.1 35 Oeste 59 Oeste 0 -- -- 76
2019-11-23 11:00:00 6 36 Oeste 63 Oeste 0 -- -- 78
2019-11-23 10:00:00 6.1 33 Oeste 53 Oeste 0 -- -- 79
2019-11-23 09:00:00 4.4 27 Oeste 55 Oeste 0.2 -- -- 86
2019-11-23 08:00:00 5.6 30 Oeste 50 Oeste 0 -- -- 79
2019-11-23 07:00:00 6.3 15 Oeste 31 Oeste 0 -- -- 78
2019-11-23 06:00:00 6.5 10 Oeste 29 Oeste 0 -- -- 75
2019-11-23 05:00:00 6.9 21 Sudoeste 31 Noroeste 0 -- -- 77
2019-11-23 04:00:00 6.4 10 Sudoeste 34 Oeste 0 -- -- 83
2019-11-23 03:00:00 8.3 17 Sudoeste 40 Sudoeste 0 -- -- 72
2019-11-23 02:00:00 8.5 19 Sudoeste 47 Sudoeste 0 -- -- 75
2019-11-23 01:00:00 8.9 18 Sudoeste 37 Sudoeste 0 -- -- 78
2019-11-23 00:00:00 8.6 11 Sudoeste 25 Sudoeste 0 -- -- 82
2019-11-22 23:00:00 8.8 19 Oeste 80 Sudoeste 2 -- -- 82
2019-11-22 22:00:00 11 31 Oeste 53 Oeste 0 -- -- 64
2019-11-22 21:00:00 11.3 8 Sur 21 Sur 0 -- -- 74
2019-11-22 20:00:00 12.3 12 Sudeste 36 Sudeste 0 -- -- 72
2019-11-22 19:00:00 12.1 17 Sur 47 Sur 0 -- -- 72
2019-11-22 18:00:00 11.7 27 Sur 54 Sur 0 -- -- 71
2019-11-22 17:00:00 11.3 30 Sur 49 Sur 0 -- -- 75
2019-11-22 16:00:00 12.2 21 Sur 40 Sur 0 -- -- 67
2019-11-22 15:00:00 12 30 Sur 50 Sur 0 -- -- 67
2019-11-22 14:00:00 11.5 20 Sur 39 Sur 0 -- -- 68
2019-11-22 13:00:00 10.9 18 Sur 32 Sur 0 -- -- 70
2019-11-22 12:00:00 8.9 12 Este 22 Sudeste 0 -- -- 76
2019-11-22 11:00:00 7.6 12 Este 18 Sudeste 0 -- -- 80
2019-11-22 10:00:00 6.1 9 Sudeste 14 Sudeste 0 -- -- 83
2019-11-22 09:00:00 5.3 9 Sudeste 17 Sudeste 0 -- -- 83
2019-11-22 08:00:00 4.9 10 Sudeste 15 Sudeste 0 -- -- 84
2019-11-22 07:00:00 5 8 Sudeste 12 Sudeste 0 -- -- 84
2019-11-22 06:00:00 5.9 8 Sudeste 13 Sudeste 0 -- -- 80
2019-11-22 05:00:00 5.8 7 Sur 12 Sur 0 -- -- 82
2019-11-22 04:00:00 4.8 9 Sur 13 Sur 0 -- -- 86
2019-11-22 03:00:00 4.1 4 Sur 6 Sudeste 0 -- -- 87
2019-11-22 02:00:00 4.1 0 Calma 8 Sudeste 0 -- -- 86
2019-11-22 01:00:00 5.3 7 Sudeste 14 Sudeste 0 -- -- 87
2019-11-22 00:00:00 7.1 7 Sudeste 12 Sudeste 0.2 -- -- 80
2019-11-21 23:00:00 7.3 3 Sur 8 Sudoeste 0 -- -- 81
2019-11-21 22:00:00 7.1 2 Sudeste 4 Sudeste 0 -- -- 79
2019-11-21 21:00:00 7.2 0 Calma 4 Noroeste 0 -- -- 79
2019-11-21 20:00:00 7.5 0 Calma 5 Sur 0 -- -- 77
2019-11-21 19:00:00 7.8 3 Sur 5 Sur 0 -- -- 74
2019-11-21 18:00:00 8.8 0 Calma 10 Oeste 0 -- -- 67
2019-11-21 17:00:00 9.8 3 Oeste 21 Oeste 0 -- -- 63
2019-11-21 16:00:00 10.4 10 Oeste 24 Oeste 0 -- -- 61
2019-11-21 15:00:00 10.6 4 Sudoeste 10 Sudoeste 0 -- -- 60
2019-11-21 14:00:00 10.4 7 Sudoeste 20 Sur 0 -- -- 60
2019-11-21 13:00:00 10.5 11 Sur 24 Sudoeste 0 -- -- 60
2019-11-21 12:00:00 9.4 14 Sudoeste 25 Oeste 0 -- -- 63
2019-11-21 11:00:00 9 13 Sudoeste 24 Sudoeste 0 -- -- 63
2019-11-21 10:00:00 7.4 12 Sudoeste 19 Sudoeste 0 -- -- 68
2019-11-21 09:00:00 5 7 Sudoeste 14 Sudoeste 0 -- -- 77
2019-11-21 08:00:00 -- -- -- -- -- -- -- -- --
2019-11-21 07:00:00 -- -- -- -- -- -- -- -- --
2019-11-21 06:00:00 -- -- -- -- -- -- -- -- --
2019-11-21 05:00:00 -- -- -- -- -- -- -- -- --
2019-11-21 04:00:00 -- -- -- -- -- -- -- -- --
2019-11-21 03:00:00 -- -- -- -- -- -- -- -- --
2019-11-21 02:00:00 -- -- -- -- -- -- -- -- --
2019-11-21 01:00:00 -- -- -- -- -- -- -- -- --
2019-11-21 00:00:00 -- -- -- -- -- -- -- -- --
2019-11-20 23:00:00 -- -- -- -- -- -- -- -- --
2019-11-20 22:00:00 -- -- -- -- -- -- -- -- --
2019-11-20 21:00:00 -- -- -- -- -- -- -- -- --
2019-11-20 20:00:00 -- -- -- -- -- -- -- -- --
2019-11-20 19:00:00 5.5 5 Este 19 Sudeste 0 -- -- 78
2019-11-20 18:00:00 6.5 12 Sudeste 23 Este 0 -- -- 71
2019-11-20 17:00:00 8.4 18 Este 25 Este 0 -- -- 65
2019-11-20 16:00:00 11 9 Sudoeste 17 Sudeste 0 -- -- 36
2019-11-20 15:00:00 10.8 5 Sur 15 Sur 0 -- -- 40
2019-11-20 14:00:00 10.1 8 Sur 17 Sudoeste 0 -- -- 41
2019-11-20 13:00:00 9.2 6 Sudoeste 15 Sudoeste 0 -- -- 49
2019-11-20 12:00:00 9.1 5 Sur 13 Sudoeste 0 -- -- 50
2019-11-20 11:00:00 7.9 8 Sur 14 Sudoeste 0 -- -- 58
2019-11-20 10:00:00 5.6 2 Sudoeste 8 Sur 0 -- -- 70
2019-11-20 09:00:00 2.4 4 Sudeste 13 Sur 0 -- -- 80
2019-11-20 08:00:00 1.4 9 Sur 11 Sur 0 -- -- 83
2019-11-20 07:00:00 1.6 5 Sur 10 Sur 0 -- -- 81
2019-11-20 06:00:00 2.2 5 Sur 10 Sur 0 -- -- 79
2019-11-20 05:00:00 2.6 6 Sur 12 Sur 0 -- -- 79
2019-11-20 04:00:00 2.4 6 Sur 9 Sur 0 -- -- 82
2019-11-20 03:00:00 2.6 2 Sur 10 Sur 0 -- -- 80
2019-11-20 02:00:00 2 5 Sur 11 Sur 0 -- -- 85
2019-11-20 01:00:00 1.6 6 Sur 9 Sur 0 -- -- 85
2019-11-20 00:00:00 2.2 3 Sur 7 Sur 0 -- -- 82
2019-11-19 23:00:00 2.6 5 Sur 9 Sur 0 -- -- 81
2019-11-19 22:00:00 2.8 8 Sur 13 Sur 0 -- -- 79
2019-11-19 21:00:00 2.9 9 Sur 13 Sur 0 -- -- 78
2019-11-19 20:00:00 2.7 7 Sur 12 Sur 0 -- -- 77
2019-11-19 19:00:00 3.4 6 Sur 10 Sur 0 -- -- 74
2019-11-19 18:00:00 6.2 3 Noroeste 11 Oeste 0 -- -- 64
2019-11-19 17:00:00 8.2 6 Oeste 19 Noroeste 0 -- -- 55
2019-11-19 16:00:00 9.2 11 Oeste 24 Oeste 0 -- -- 51
2019-11-19 15:00:00 9.3 12 Oeste 23 Noroeste 0 -- -- 50
2019-11-19 14:00:00 8.7 13 Oeste 27 Oeste 0 -- -- 53
2019-11-19 13:00:00 7.9 17 Oeste 31 Oeste 0 -- -- 55
2019-11-19 12:00:00 7.1 15 Oeste 32 Noroeste 0 -- -- 59
2019-11-19 11:00:00 6 18 Oeste 33 Oeste 0 -- -- 65
2019-11-19 10:00:00 4.9 14 Oeste 27 Oeste 0 -- -- 70
2019-11-19 09:00:00 3 12 Oeste 24 Oeste 0 -- -- 75
2019-11-19 08:00:00 1.7 6 Oeste 20 Oeste 0 -- -- 79
2019-11-19 07:00:00 1.2 5 Oeste 11 Oeste 0 -- -- 79
2019-11-19 06:00:00 1.9 7 Oeste 19 Oeste 0 -- -- 77
2019-11-19 05:00:00 1.9 10 Oeste 27 Noroeste 0 -- -- 76
2019-11-19 04:00:00 2.6 15 Oeste 29 Oeste 0 -- -- 73
2019-11-19 03:00:00 2.4 17 Oeste 30 Oeste 0 -- -- 76
2019-11-19 02:00:00 2.2 8 Oeste 24 Oeste 0 -- -- 76
2019-11-19 01:00:00 2.4 9 Oeste 26 Oeste 0 -- -- 78
2019-11-19 00:00:00 2.4 13 Oeste 32 Oeste 0 -- -- 80
2019-11-18 23:00:00 2.8 15 Oeste 31 Oeste 0 -- -- 82
2019-11-18 22:00:00 2.9 13 Oeste 39 Oeste 0 -- -- 78
2019-11-18 21:00:00 3.1 22 Noroeste 42 Oeste 0 -- -- 79
2019-11-18 20:00:00 3 21 Noroeste 33 Noroeste 0 -- -- 82
2019-11-18 19:00:00 3.2 17 Noroeste 38 Noroeste 0 -- -- 83
2019-11-18 18:00:00 4 16 Noroeste 38 Noroeste 0 -- -- 81
2019-11-18 17:00:00 4.9 24 Noroeste 45 Noroeste 0 -- -- 76
2019-11-18 16:00:00 5.8 30 Noroeste 49 Noroeste 0 -- -- 72
2019-11-18 15:00:00 5.8 36 Noroeste 54 Noroeste 0 -- -- 70
2019-11-18 14:00:00 5.4 29 Noroeste 50 Noroeste 0 -- -- 75
2019-11-18 13:00:00 5.5 31 Noroeste 58 Noroeste 0 -- -- 72
2019-11-18 12:00:00 5.4 27 Noroeste 56 Noroeste 0 -- -- 74
2019-11-18 11:00:00 4.6 32 Noroeste 50 Noroeste 0 -- -- 80
2019-11-18 10:00:00 3.9 29 Noroeste 42 Noroeste 0 -- -- 84
2019-11-18 09:00:00 3.6 17 Noroeste 33 Noroeste 0 -- -- 84
2019-11-18 08:00:00 3.1 14 Noroeste 35 Oeste 0 -- -- 85
2019-11-18 07:00:00 3.6 12 Oeste 33 Noroeste 0 -- -- 88
2019-11-18 06:00:00 4 15 Noroeste 29 Oeste 0 -- -- 90
2019-11-18 05:00:00 4 10 Oeste 25 Noroeste 0.2 -- -- 93
2019-11-18 04:00:00 4.6 11 Noroeste 22 Oeste 0 -- -- 86
2019-11-18 03:00:00 4.1 8 Oeste 12 Oeste 0 -- -- 87
2019-11-18 02:00:00 4.1 3 Oeste 7 Sudoeste 0 -- -- 87
2019-11-18 01:00:00 4.2 4 Este 14 Oeste 0 -- -- 87
2019-11-18 00:00:00 5.1 9 Oeste 15 Oeste 0 -- -- 83
2019-11-17 23:00:00 6.3 11 Oeste 29 Sudoeste 0 -- -- 81
2019-11-17 22:00:00 6.6 17 Oeste 29 Sudoeste 0 -- -- 83
2019-11-17 21:00:00 6.4 10 Oeste 26 Sudoeste 0.2 -- -- 83
2019-11-17 20:00:00 6.8 13 Oeste 33 Oeste 0 -- -- 78
2019-11-17 19:00:00 7.1 19 Oeste 32 Sudoeste 0 -- -- 75
2019-11-17 18:00:00 7.2 14 Oeste 27 Sudoeste 0 -- -- 76
2019-11-17 17:00:00 7.7 16 Oeste 37 Sudoeste 0 -- -- 74
2019-11-17 16:00:00 7.7 25 Oeste 41 Oeste 0 -- -- 71
2019-11-17 15:00:00 9.6 20 Oeste 41 Oeste 0 -- -- 63
2019-11-17 14:00:00 9.8 18 Oeste 33 Oeste 0 -- -- 60
2019-11-17 13:00:00 9.7 25 Oeste 41 Oeste 0 -- -- 57
2019-11-17 12:00:00 8.5 22 Oeste 42 Oeste 0 -- -- 60
2019-11-17 11:00:00 6.8 28 Oeste 49 Oeste 0 -- -- 65
2019-11-17 10:00:00 5.1 26 Oeste 51 Oeste 0 -- -- 70
2019-11-17 09:00:00 4.5 24 Oeste 39 Oeste 0 -- -- 69
2019-11-17 08:00:00 3.6 22 Oeste 40 Sudoeste 0 -- -- 73
2019-11-17 07:00:00 3.1 25 Sudoeste 41 Oeste 0 -- -- 73
2019-11-17 06:00:00 3.3 27 Sudoeste 42 Oeste 0 -- -- 73
2019-11-17 05:00:00 2.9 24 Oeste 37 Sudoeste 0 -- -- 75
2019-11-17 04:00:00 3.2 22 Oeste 39 Oeste 0 -- -- 72
2019-11-17 03:00:00 3 21 Oeste 42 Sudoeste 0 -- -- 73
2019-11-17 02:00:00 3.7 23 Sudoeste 42 Oeste 0 -- -- 71
2019-11-17 01:00:00 3.9 18 Oeste 41 Oeste 0 -- -- 69
2019-11-17 00:00:00 4.4 22 Oeste 36 Oeste 0 -- -- 68
2019-11-16 23:00:00 5 22 Oeste 47 Oeste 0 -- -- 68
2019-11-16 22:00:00 5.6 27 Oeste 49 Oeste 0 -- -- 65
2019-11-16 21:00:00 4.6 17 Oeste 33 Sudoeste 0 -- -- 68
2019-11-16 20:00:00 4.7 18 Oeste 29 Oeste 0 -- -- 67
2019-11-16 19:00:00 4.6 21 Oeste 36 Oeste 0 -- -- 70
2019-11-16 18:00:00 4.6 18 Oeste 37 Oeste 0 -- -- 71
2019-11-16 17:00:00 5.3 22 Oeste 43 Oeste 0 -- -- 66
2019-11-16 16:00:00 6.1 17 Oeste 34 Oeste 0 -- -- 63
2019-11-16 15:00:00 7.5 14 Oeste 28 Noroeste 0 -- -- 57
2019-11-16 14:00:00 7.6 12 Oeste 27 Oeste 0 -- -- 54
2019-11-16 13:00:00 6.6 16 Oeste 27 Sudoeste 0 -- -- 61
2019-11-16 12:00:00 5.7 10 Noroeste 22 Oeste 0 -- -- 57
2019-11-16 11:00:00 5.1 8 Oeste 17 Oeste 0 -- -- 60
2019-11-16 10:00:00 3.5 9 Oeste 19 Oeste 0 -- -- 70
2019-11-16 09:00:00 1.8 10 Oeste 17 Oeste 0 -- -- 79
2019-11-16 08:00:00 0 6 Sudoeste 14 Oeste 0 -- -- 89
2019-11-16 07:00:00 0.7 8 Oeste 18 Oeste 0 -- -- 87
2019-11-16 06:00:00 0.8 5 Oeste 21 Oeste 0 -- -- 88
2019-11-16 05:00:00 1.2 10 Oeste 19 Oeste 0 -- -- 89
2019-11-16 04:00:00 1.2 8 Noroeste 16 Noroeste 0 -- -- 92
2019-11-16 03:00:00 1 3 Oeste 8 Noroeste 0 -- -- 91
2019-11-16 02:00:00 2.2 2 Sudoeste 13 Oeste 0 -- -- 89
2019-11-16 01:00:00 2.9 8 Oeste 18 Oeste 0 -- -- 88
2019-11-16 00:00:00 2.7 4 Oeste 17 Oeste 0 -- -- 89
2019-11-15 23:00:00 2.6 10 Noroeste 17 Noroeste 0 -- -- 89
2019-11-15 22:00:00 2.9 8 Noroeste 17 Noroeste 0 -- -- 88
2019-11-15 21:00:00 3.4 7 Oeste 16 Oeste 0 -- -- 84
2019-11-15 20:00:00 3.4 10 Oeste 27 Oeste 0 -- -- 81
2019-11-15 19:00:00 4.1 9 Oeste 24 Oeste 0 -- -- 74
2019-11-15 18:00:00 5.1 14 Oeste 35 Oeste 0 -- -- 72
2019-11-15 17:00:00 6.1 22 Oeste 41 Oeste 0 -- -- 68
2019-11-15 16:00:00 6.6 26 Oeste 48 Oeste 0 -- -- 64
2019-11-15 15:00:00 7.3 27 Oeste 49 Oeste 0 -- -- 63
2019-11-15 14:00:00 7 27 Oeste 46 Oeste 0 -- -- 63
2019-11-15 13:00:00 6.9 26 Oeste 45 Oeste 0 -- -- 65
2019-11-15 12:00:00 6.1 22 Oeste 38 Oeste 0 -- -- 69
2019-11-15 11:00:00 5.6 20 Oeste 33 Oeste 0 -- -- 73
2019-11-15 10:00:00 4.7 21 Oeste 42 Oeste 0 -- -- 73
2019-11-15 09:00:00 2.9 25 Oeste 45 Oeste 0 -- -- 78
2019-11-15 08:00:00 1.8 15 Oeste 38 Oeste 0 -- -- 80
2019-11-15 07:00:00 1.6 13 Oeste 34 Oeste 0 -- -- 80
2019-11-15 06:00:00 2.2 15 Oeste 29 Oeste 0 -- -- 82
2019-11-15 05:00:00 2.4 13 Oeste 25 Oeste 0 -- -- 86
2019-11-15 04:00:00 2.3 14 Oeste 26 Oeste 0 -- -- 85
2019-11-15 03:00:00 2.4 12 Oeste 29 Oeste 0 -- -- 86
2019-11-15 02:00:00 2.5 18 Oeste 32 Oeste 0 -- -- 87
2019-11-15 01:00:00 2.6 19 Oeste 33 Oeste 0 -- -- 85
2019-11-15 00:00:00 2.6 10 Oeste 22 Oeste 0 -- -- 88